Time;durP1;ratioP1;P1;durP2;ratioP2;P2;SDS_P1;SDS_P2;PMS_P1;PMS_P2;Temp;Humidity;BMP_temperature;BMP_pressure;BME280_temperature;BME280_humidity;BME280_pressure;Samples;Min_cycle;Max_cycle;Signal;HPM_P1;HPM_P2
2023/02/11 00:02:16;;;;;;;18.40;11.57;;;;;;;6.94;43.51;103103.38;4926971;28;20511;-75
2023/02/11 00:04:44;;;;;;;19.60;11.88;;;;;;;6.93;43.21;103098.03;4928646;28;20775;-78
2023/02/11 00:07:13;;;;;;;19.58;11.93;;;;;;;6.94;43.34;103092.50;4928172;28;20515;-75
2023/02/11 00:09:41;;;;;;;18.95;11.73;;;;;;;6.92;43.38;103088.97;4935911;29;20039;-75
2023/02/11 00:12:09;;;;;;;18.33;11.68;;;;;;;6.92;43.55;103099.84;4928381;28;20036;-75
2023/02/11 00:14:36;;;;;;;19.05;11.93;;;;;;;6.91;43.40;103086.28;4927851;28;20040;-77
2023/02/11 00:17:04;;;;;;;21.90;11.82;;;;;;;6.90;43.45;103096.28;4932641;28;20035;-75
2023/02/11 00:19:32;;;;;;;18.08;11.32;;;;;;;6.90;43.41;103092.69;4928964;28;20074;-75
2023/02/11 00:22:00;;;;;;;15.40;10.98;;;;;;;6.88;43.54;103092.72;4929840;29;20047;-75
2023/02/11 00:24:29;;;;;;;19.23;11.80;;;;;;;6.89;43.57;103082.72;4943293;28;20058;-75
2023/02/11 00:26:57;;;;;;;16.17;11.30;;;;;;;6.87;43.39;103081.91;4954910;28;20044;-75
2023/02/11 00:29:25;;;;;;;16.75;10.93;;;;;;;6.86;43.45;103078.28;4943500;28;20046;-75
2023/02/11 00:31:53;;;;;;;17.65;11.38;;;;;;;6.85;43.71;103073.81;4945042;28;20101;-75
2023/02/11 00:34:24;;;;;;;17.75;11.18;;;;;;;6.84;43.36;103065.69;4930170;28;20050;-75
2023/02/11 00:36:52;;;;;;;17.80;10.93;;;;;;;6.83;43.74;103059.38;4943666;28;20567;-75
2023/02/11 00:39:20;;;;;;;18.17;11.48;;;;;;;6.83;43.98;103059.38;4964071;28;20506;-75
2023/02/11 00:41:51;;;;;;;18.85;11.65;;;;;;;6.84;43.85;103061.16;4934159;28;20522;-75
2023/02/11 00:44:20;;;;;;;16.50;10.98;;;;;;;6.83;43.53;103059.38;4942637;28;21428;-75
2023/02/11 00:46:47;;;;;;;15.48;10.38;;;;;;;6.81;43.80;103062.13;4961472;28;20039;-76
2023/02/11 00:49:15;;;;;;;16.10;10.38;;;;;;;6.81;43.66;103064.84;4955804;28;20062;-76
2023/02/11 00:51:43;;;;;;;18.67;10.90;;;;;;;6.81;43.68;103061.25;4930653;28;20048;-76
2023/02/11 00:54:11;;;;;;;16.48;11.18;;;;;;;6.81;43.69;103061.25;4915411;28;20055;-75
2023/02/11 00:56:39;;;;;;;18.08;10.95;;;;;;;6.79;43.63;103058.56;4925855;28;20040;-75
2023/02/11 00:59:08;;;;;;;17.70;10.77;;;;;;;6.80;43.76;103067.63;4928420;28;20048;-75
2023/02/11 01:01:36;;;;;;;16.35;11.40;;;;;;;6.78;43.75;103069.50;4919862;28;20511;-76
2023/02/11 01:04:04;;;;;;;18.70;11.50;;;;;;;6.77;43.69;103076.81;4926097;28;20299;-75
2023/02/11 01:06:32;;;;;;;19.95;11.80;;;;;;;6.77;43.71;103073.22;4933298;29;20441;-76
2023/02/11 01:09:00;;;;;;;17.67;10.77;;;;;;;6.76;43.80;103065.97;4926104;28;20040;-75
2023/02/11 01:11:28;;;;;;;17.40;11.43;;;;;;;6.76;43.81;103058.72;4926056;28;20036;-76
2023/02/11 01:13:56;;;;;;;16.65;10.82;;;;;;;6.75;43.79;103064.19;4929894;28;20055;-76
2023/02/11 01:16:25;;;;;;;17.02;10.40;;;;;;;6.75;43.78;103056.03;4940484;28;20044;-76
2023/02/11 01:18:53;;;;;;;17.25;11.52;;;;;;;6.74;43.72;103051.50;4923973;28;20052;-76
2023/02/11 01:21:21;;;;;;;17.63;11.15;;;;;;;6.72;43.94;103053.38;4921702;29;20352;-76
2023/02/11 01:23:50;;;;;;;14.43;10.50;;;;;;;6.72;43.76;103064.25;4927800;28;20044;-76
2023/02/11 01:26:18;;;;;;;17.60;11.27;;;;;;;6.71;43.88;103055.22;4936049;29;20134;-75
2023/02/11 01:28:46;;;;;;;14.85;10.32;;;;;;;6.71;43.89;103057.94;4938515;28;20100;-76
2023/02/11 01:31:14;;;;;;;16.55;10.73;;;;;;;6.70;43.83;103061.59;4958185;28;20482;-77
2023/02/11 01:33:44;;;;;;;15.48;10.45;;;;;;;6.71;43.73;103065.22;4957744;28;20047;-78
2023/02/11 01:36:12;;;;;;;17.25;11.02;;;;;;;6.70;43.79;103072.47;4940104;28;20529;-77
2023/02/11 01:38:40;;;;;;;15.48;10.02;;;;;;;6.68;44.00;103074.38;4931414;28;20122;-77
2023/02/11 01:41:11;;;;;;;18.55;11.05;;;;;;;6.69;44.14;103075.28;4990725;28;20051;-78
2023/02/11 01:43:41;;;;;;;18.40;11.10;;;;;;;6.69;43.98;103078.00;4948559;28;20548;-78
2023/02/11 01:46:23;;;;;;;17.17;11.05;;;;;;;6.69;44.39;103083.44;4926847;28;20071;-78
2023/02/11 01:48:57;;;;;;;17.30;11.18;;;;;;;6.67;44.25;103078.06;4936429;28;20071;-78
2023/02/11 01:51:31;;;;;;;16.10;11.00;;;;;;;6.65;44.28;103077.22;4955386;28;20096;-78
2023/02/11 01:59:43;;;;;;;15.15;10.63;;;;;;;6.62;44.35;103063.69;4951326;28;20065;-78
2023/02/11 02:02:14;;;;;;;18.55;11.77;;;;;;;6.61;44.28;103061.06;4952685;28;20569;-78
2023/02/11 02:04:50;;;;;;;18.00;11.00;;;;;;;6.62;44.26;103054.66;4950559;28;20089;-77
2023/02/11 02:07:28;;;;;;;17.33;10.57;;;;;;;6.61;44.60;103053.75;4947297;28;20562;-78
2023/02/11 02:10:03;;;;;;;18.83;11.60;;;;;;;6.59;44.36;103052.94;4955264;28;20557;-76
2023/02/11 02:12:31;;;;;;;18.05;11.50;;;;;;;6.57;44.18;103056.66;4944314;28;20138;-76
2023/02/11 02:15:19;;;;;;;17.73;11.65;;;;;;;6.58;44.81;103050.28;4952540;28;20054;-77
2023/02/11 02:17:58;;;;;;;16.60;11.00;;;;;;;6.57;44.60;103037.63;4950848;28;20376;-76
2023/02/11 02:20:59;;;;;;;16.50;10.70;;;;;;;6.55;44.82;103044.94;4947228;28;20051;-76
2023/02/11 02:23:39;;;;;;;17.50;10.77;;;;;;;6.55;44.67;103050.38;4944881;28;20075;-76
2023/02/11 02:26:29;;;;;;;17.40;11.25;;;;;;;6.55;44.82;103042.22;4948859;28;20053;-76
2023/02/11 02:29:20;;;;;;;18.25;11.15;;;;;;;6.54;44.73;103048.59;4950275;28;20052;-77
2023/02/11 02:32:05;;;;;;;18.60;10.95;;;;;;;6.55;44.63;103050.38;4956110;28;20054;-76
2023/02/11 02:34:40;;;;;;;17.42;11.02;;;;;;;6.54;44.80;103041.34;4950095;28;20090;-76
2023/02/11 02:37:12;;;;;;;16.90;11.57;;;;;;;6.54;44.33;103037.72;4963082;28;20098;-76
2023/02/11 02:39:40;;;;;;;17.25;11.50;;;;;;;6.53;44.69;103036.81;4945911;28;20042;-76
2023/02/11 02:42:09;;;;;;;18.77;11.07;;;;;;;6.53;44.54;103028.66;4952863;28;20100;-76
2023/02/11 02:44:37;;;;;;;17.30;11.05;;;;;;;6.53;44.56;103028.66;4946082;28;20043;-76
2023/02/11 02:47:05;;;;;;;17.92;11.70;;;;;;;6.53;44.30;103025.94;4950537;28;20043;-76
2023/02/11 02:49:34;;;;;;;19.13;11.85;;;;;;;6.55;44.65;103029.50;4946503;28;20040;-76
2023/02/11 02:52:16;;;;;;;18.17;11.43;;;;;;;6.55;44.99;103029.50;4947932;28;20074;-76
2023/02/11 02:55:24;;;;;;;18.30;11.20;;;;;;;6.48;45.32;103022.50;4947248;28;20551;-76
2023/02/11 02:58:28;;;;;;;17.48;10.95;;;;;;;6.52;45.14;103023.31;4952079;28;20097;-77
2023/02/11 03:01:03;;;;;;;18.70;11.43;;;;;;;6.51;45.06;103030.56;4948173;28;20047;-77
2023/02/11 03:03:42;;;;;;;18.70;10.90;;;;;;;6.54;44.82;103029.56;4943322;28;20066;-77
2023/02/11 03:06:18;;;;;;;17.63;10.65;;;;;;;6.55;44.94;103029.50;4958345;28;20089;-77
2023/02/11 03:08:55;;;;;;;18.77;10.98;;;;;;;6.55;44.91;103023.19;4941192;28;20119;-76
2023/02/11 03:11:24;;;;;;;19.45;10.95;;;;;;;6.53;44.67;103031.38;4947719;28;20097;-76
2023/02/11 03:13:54;;;;;;;16.42;11.25;;;;;;;6.54;44.65;103033.16;4951462;28;20040;-77
2023/02/11 03:16:25;;;;;;;16.00;10.35;;;;;;;6.55;44.79;103024.06;4939022;28;20054;-77
2023/02/11 03:18:59;;;;;;;18.75;10.73;;;;;;;6.55;45.01;103025.91;4934925;28;20499;-77
2023/02/11 03:21:30;;;;;;;17.17;11.02;;;;;;;6.54;44.69;103011.41;4947949;28;20051;-76
2023/02/11 03:24:04;;;;;;;17.50;10.70;;;;;;;6.55;44.70;103005.03;4949521;28;20047;-76
2023/02/11 03:26:37;;;;;;;17.42;10.68;;;;;;;6.54;45.20;102992.34;4946761;28;20059;-76
2023/02/11 03:29:14;;;;;;;18.67;10.90;;;;;;;6.55;45.06;102987.81;4938869;28;20048;-77
2023/02/11 03:31:52;;;;;;;16.17;10.27;;;;;;;6.55;45.18;102994.13;4946945;28;20048;-77
2023/02/11 03:34:27;;;;;;;18.48;10.88;;;;;;;6.53;45.13;102993.31;4966630;28;20048;-76
2023/02/11 03:37:03;;;;;;;15.00;10.05;;;;;;;6.55;45.17;102996.84;5010875;28;20048;-76
2023/02/11 03:39:36;;;;;;;17.10;10.15;;;;;;;6.52;44.88;102998.81;4940954;28;20110;-76
2023/02/11 03:42:07;;;;;;;16.73;10.30;;;;;;;6.53;44.74;103000.59;4968011;28;20120;-76
2023/02/11 03:44:39;;;;;;;15.65;10.02;;;;;;;6.54;44.82;102999.63;4995058;28;20041;-76
2023/02/11 03:47:11;;;;;;;17.13;10.02;;;;;;;6.51;45.00;102999.75;4947067;28;20035;-76
2023/02/11 03:49:41;;;;;;;16.20;10.25;;;;;;;6.53;44.94;103000.59;4944311;28;20043;-77
2023/02/11 03:52:13;;;;;;;15.23;10.02;;;;;;;6.53;45.10;103008.78;4941745;28;20078;-76
2023/02/11 03:54:43;;;;;;;17.98;10.48;;;;;;;6.52;45.25;103005.16;4980191;28;20078;-76
2023/02/11 03:57:10;;;;;;;16.92;11.00;;;;;;;6.52;44.87;103009.72;4956524;28;20582;-77
2023/02/11 03:59:55;;;;;;;15.70;10.18;;;;;;;6.53;45.59;103000.59;4973378;28;20055;-76
2023/02/11 04:02:27;;;;;;;16.00;9.90;;;;;;;6.51;45.08;103003.38;4947238;28;20082;-77
2023/02/11 04:04:55;;;;;;;17.35;9.40;;;;;;;6.51;45.04;103005.19;4961488;28;20498;-76
2023/02/11 04:07:24;;;;;;;16.38;10.00;;;;;;;6.52;44.94;103001.53;4948430;28;20048;-76
2023/02/11 04:09:53;;;;;;;15.07;9.40;;;;;;;6.51;45.03;102991.59;4940201;28;20037;-76
2023/02/11 04:12:20;;;;;;;16.65;9.98;;;;;;;6.50;45.02;102996.16;4937243;28;20035;-76
2023/02/11 04:14:48;;;;;;;15.07;9.85;;;;;;;6.50;45.16;102988.00;4953023;28;20049;-76
2023/02/11 04:17:16;;;;;;;14.27;9.65;;;;;;;6.50;45.21;102982.56;4945302;28;20505;-76
2023/02/11 04:19:45;;;;;;;13.93;9.10;;;;;;;6.51;45.04;102980.72;4996581;28;20042;-76
2023/02/11 04:22:13;;;;;;;13.77;8.77;;;;;;;6.52;45.38;102987.94;4974872;28;20033;-76
2023/02/11 04:24:42;;;;;;;15.77;9.70;;;;;;;6.54;45.44;102989.63;4969246;28;20042;-76
2023/02/11 04:27:10;;;;;;;15.43;9.30;;;;;;;6.54;45.15;102980.59;4968927;28;20560;-76
2023/02/11 04:29:38;;;;;;;16.38;9.50;;;;;;;6.54;45.19;102984.19;4954537;28;20040;-76
2023/02/11 04:32:06;;;;;;;14.90;10.20;;;;;;;6.54;45.17;102984.19;4969058;28;20577;-76
2023/02/11 04:34:34;;;;;;;15.95;9.65;;;;;;;6.55;45.29;102985.09;4998201;28;20097;-76
2023/02/11 04:37:01;;;;;;;14.85;9.90;;;;;;;6.54;45.30;102984.19;4997672;28;20436;-76
2023/02/11 04:39:29;;;;;;;14.55;9.20;;;;;;;6.55;45.55;102985.09;4929469;28;20306;-76
2023/02/11 04:41:58;;;;;;;16.77;9.40;;;;;;;6.56;45.26;102987.75;4936227;28;20456;-77
2023/02/11 04:44:26;;;;;;;15.50;9.75;;;;;;;6.55;45.33;102990.53;4974877;28;20055;-77
2023/02/11 04:46:54;;;;;;;15.63;9.10;;;;;;;6.55;45.42;102985.09;4976216;28;20037;-77
2023/02/11 04:49:22;;;;;;;16.77;9.25;;;;;;;6.54;45.54;102986.03;4962936;28;20047;-76
2023/02/11 04:51:49;;;;;;;15.00;9.20;;;;;;;6.54;45.38;102991.47;4971495;28;20042;-76
2023/02/11 04:54:17;;;;;;;15.48;9.02;;;;;;;6.53;45.33;102993.31;4948028;28;20494;-76
2023/02/11 04:56:45;;;;;;;15.38;9.30;;;;;;;6.54;45.46;103005.97;4946456;28;20043;-76
2023/02/11 04:59:15;;;;;;;16.90;9.57;;;;;;;6.56;45.57;103008.63;4940369;28;20051;-77
2023/02/11 05:01:43;;;;;;;14.20;8.98;;;;;;;6.54;45.43;103007.78;4963520;28;20118;-77
2023/02/11 05:04:10;;;;;;;16.35;9.52;;;;;;;6.53;45.49;102998.75;4926699;28;20110;-77
2023/02/11 05:06:39;;;;;;;12.63;7.90;;;;;;;6.54;45.75;103000.53;4914410;29;20044;-76
2023/02/11 05:09:07;;;;;;;13.30;9.15;;;;;;;6.53;45.70;103001.47;4966949;28;20049;-76
2023/02/11 05:11:35;;;;;;;15.43;8.68;;;;;;;6.53;45.62;103000.59;4966589;28;20046;-76
2023/02/11 05:14:03;;;;;;;14.40;9.23;;;;;;;6.53;45.96;102998.75;4959517;28;20048;-76
2023/02/11 05:16:32;;;;;;;14.82;8.70;;;;;;;6.54;45.84;102999.63;4931048;28;20114;-76
2023/02/11 05:19:00;;;;;;;14.00;8.18;;;;;;;6.51;45.77;102989.78;4930711;28;20134;-76
2023/02/11 05:21:28;;;;;;;15.20;8.85;;;;;;;6.53;45.88;102992.44;4987197;28;20048;-76
2023/02/11 05:23:56;;;;;;;13.85;8.50;;;;;;;6.53;46.08;102998.75;4969619;28;20080;-77
2023/02/11 05:26:24;;;;;;;14.25;8.52;;;;;;;6.52;46.14;102987.94;5011559;28;20087;-76
2023/02/11 05:28:53;;;;;;;16.83;9.13;;;;;;;6.53;46.19;102979.69;5002643;28;20138;-77
2023/02/11 05:31:20;;;;;;;14.93;8.77;;;;;;;6.52;46.07;102988.84;4953303;28;20039;-76
2023/02/11 05:33:50;;;;;;;16.45;9.43;;;;;;;6.55;46.19;102979.66;4990463;28;20534;-77
2023/02/11 05:36:17;;;;;;;14.27;8.70;;;;;;;6.54;46.23;102983.31;4989629;28;20062;-77
2023/02/11 05:38:45;;;;;;;14.65;8.57;;;;;;;6.54;46.16;102991.47;4957692;28;20057;-77
2023/02/11 05:41:13;;;;;;;13.65;8.63;;;;;;;6.55;46.25;102990.53;4958851;28;20043;-76
2023/02/11 05:43:41;;;;;;;12.57;8.30;;;;;;;6.55;46.23;102994.13;5000957;28;20045;-77
2023/02/11 05:46:09;;;;;;;17.60;9.18;;;;;;;6.56;46.29;102986.88;4987651;28;20504;-76
2023/02/11 05:48:37;;;;;;;14.80;8.80;;;;;;;6.56;46.33;102974.16;4935819;28;20535;-76
2023/02/11 05:51:06;;;;;;;15.00;9.25;;;;;;;6.58;46.41;102966.84;4962723;28;20207;-76
2023/02/11 05:53:34;;;;;;;16.08;9.15;;;;;;;6.58;46.41;102965.94;4982776;28;20554;-76
2023/02/11 05:56:02;;;;;;;15.73;8.85;;;;;;;6.58;46.66;102963.22;4971756;28;20923;-77
2023/02/11 05:58:31;;;;;;;15.98;9.48;;;;;;;6.59;46.81;102959.56;4973240;28;20446;-77
2023/02/11 06:00:58;;;;;;;17.45;9.55;;;;;;;6.59;46.52;102971.34;4947231;28;20101;-76
2023/02/11 06:03:26;;;;;;;14.50;8.88;;;;;;;6.59;46.69;102970.44;4996167;28;20126;-76
2023/02/11 06:05:54;;;;;;;15.63;8.95;;;;;;;6.59;46.54;102971.34;4972766;28;20585;-76
2023/02/11 06:08:23;;;;;;;16.50;9.93;;;;;;;6.60;46.58;102969.50;4945145;28;20593;-77
2023/02/11 06:10:51;;;;;;;17.20;9.55;;;;;;;6.59;46.73;102982.22;4959827;28;20044;-77
2023/02/11 06:13:19;;;;;;;14.02;8.82;;;;;;;6.58;46.68;102983.16;4937261;28;20119;-77
2023/02/11 06:15:55;;;;;;;14.10;9.25;;;;;;;6.60;47.40;102980.38;4978647;28;20049;-77
2023/02/11 06:18:23;;;;;;;15.93;9.80;;;;;;;6.57;46.71;102983.22;4941629;28;20040;-76
2023/02/11 06:20:51;;;;;;;16.23;9.10;;;;;;;6.57;46.92;102988.66;4969531;28;20044;-76
2023/02/11 06:23:19;;;;;;;18.13;9.77;;;;;;;6.56;46.82;102976.88;4985306;28;20048;-77
2023/02/11 06:25:49;;;;;;;15.65;9.05;;;;;;;6.57;47.20;102975.94;4985475;28;20037;-76
2023/02/11 06:28:17;;;;;;;16.00;9.52;;;;;;;6.56;47.18;102974.16;4952432;28;20093;-76
2023/02/11 06:30:45;;;;;;;15.88;9.55;;;;;;;6.55;47.05;102969.66;4946991;28;20143;-76
2023/02/11 06:33:13;;;;;;;16.67;9.85;;;;;;;6.56;46.90;102978.72;4942090;28;20097;-76
2023/02/11 06:35:41;;;;;;;18.80;10.32;;;;;;;6.56;47.16;102978.72;4955894;28;20113;-76
2023/02/11 06:38:08;;;;;;;18.10;10.50;;;;;;;6.56;47.17;102982.31;4951866;28;20036;-77
2023/02/11 06:40:36;;;;;;;17.15;10.77;;;;;;;6.56;47.04;102989.59;4956599;28;20059;-76
2023/02/11 06:43:05;;;;;;;21.42;10.60;;;;;;;6.57;47.27;102989.53;4979241;28;20039;-76
2023/02/11 06:45:33;;;;;;;17.02;10.45;;;;;;;6.55;47.16;102985.97;4945984;28;20095;-76
2023/02/11 06:48:01;;;;;;;18.02;10.43;;;;;;;6.56;47.23;102992.31;5025226;28;20123;-76
2023/02/11 06:50:28;;;;;;;18.00;10.05;;;;;;;6.56;47.32;102990.47;4949452;28;20056;-76
2023/02/11 06:52:58;;;;;;;18.55;10.05;;;;;;;6.57;47.31;102989.53;5017878;28;20397;-76
2023/02/11 06:55:26;;;;;;;19.63;11.00;;;;;;;6.55;47.20;102990.53;4975532;28;20412;-76
2023/02/11 06:57:54;;;;;;;19.02;10.30;;;;;;;6.56;47.30;102995.03;4946131;28;20051;-77
2023/02/11 07:00:24;;;;;;;18.80;10.75;;;;;;;6.57;47.19;102996.81;4950006;28;20533;-77
2023/02/11 07:02:52;;;;;;;19.58;10.52;;;;;;;6.55;47.16;103002.31;4966124;28;20071;-77
2023/02/11 07:05:20;;;;;;;19.35;10.80;;;;;;;6.55;47.49;102988.69;4974487;28;20457;-77
2023/02/11 07:07:48;;;;;;;17.73;10.55;;;;;;;6.54;47.34;102992.34;4952256;28;20079;-76
2023/02/11 07:10:16;;;;;;;18.58;11.45;;;;;;;6.55;47.48;102990.53;4937257;28;20049;-76
2023/02/11 07:12:43;;;;;;;18.10;10.52;;;;;;;6.54;47.52;102992.34;4953580;28;20033;-77
2023/02/11 07:15:11;;;;;;;18.42;10.45;;;;;;;6.55;47.33;102993.25;4976597;28;20037;-77
2023/02/11 07:17:40;;;;;;;18.52;10.77;;;;;;;6.55;47.37;102993.25;4961208;28;20034;-76
2023/02/11 07:20:11;;;;;;;19.27;10.60;;;;;;;6.55;47.47;103004.13;4964881;28;20292;-77
2023/02/11 07:22:39;;;;;;;17.17;10.27;;;;;;;6.55;47.47;103001.41;4963762;28;20076;-77
2023/02/11 07:25:07;;;;;;;19.95;11.30;;;;;;;6.54;47.50;103002.34;4972511;28;20052;-76
2023/02/11 07:27:34;;;;;;;17.65;9.77;;;;;;;6.54;47.36;103002.34;4967444;28;20508;-76
2023/02/11 07:30:02;;;;;;;18.30;10.02;;;;;;;6.54;47.48;103015.94;4949979;28;20060;-76
2023/02/11 07:32:33;;;;;;;23.13;10.63;;;;;;;6.53;47.66;103015.06;4943980;28;20082;-77
2023/02/11 07:35:03;;;;;;;20.90;11.00;;;;;;;6.54;47.64;103014.13;4961847;28;20044;-76
2023/02/11 07:37:33;;;;;;;16.58;10.30;;;;;;;6.55;47.79;103015.00;4960060;28;20047;-76
2023/02/11 07:40:01;;;;;;;17.48;10.55;;;;;;;6.54;47.52;103011.41;4935139;28;20051;-76
2023/02/11 07:42:29;;;;;;;21.02;10.50;;;;;;;6.54;47.90;103016.84;4993332;28;20070;-77
2023/02/11 07:44:57;;;;;;;21.80;12.38;;;;;;;6.54;47.85;103010.50;4963439;28;20049;-77
2023/02/11 07:47:25;;;;;;;22.15;12.93;;;;;;;6.55;47.86;103020.47;4957670;28;20489;-77
2023/02/11 07:49:53;;;;;;;20.92;12.13;;;;;;;6.57;47.57;103030.34;4968504;28;20044;-77
2023/02/11 07:52:24;;;;;;;20.80;11.20;;;;;;;6.58;47.68;103028.53;4934809;28;20070;-79
2023/02/11 07:54:52;;;;;;;20.77;12.20;;;;;;;6.57;47.82;103026.75;4988622;28;20063;-76
2023/02/11 07:57:20;;;;;;;20.08;11.70;;;;;;;6.57;47.85;103029.47;4952160;28;20070;-77
2023/02/11 07:59:48;;;;;;;21.10;12.00;;;;;;;6.57;48.16;103029.47;4998371;28;20388;-77
2023/02/11 08:02:15;;;;;;;22.30;12.25;;;;;;;6.57;47.89;103035.78;4960531;28;20048;-77
2023/02/11 08:04:45;;;;;;;20.58;11.45;;;;;;;6.57;48.22;103027.63;4958416;28;20528;-76
2023/02/11 08:07:15;;;;;;;24.02;12.20;;;;;;;6.59;48.20;103041.19;4954323;28;20051;-77
2023/02/11 08:09:44;;;;;;;21.60;11.20;;;;;;;6.59;48.09;103038.47;4951822;28;20044;-76
2023/02/11 08:12:12;;;;;;;19.75;11.90;;;;;;;6.57;48.22;103033.06;4948587;28;20055;-76
2023/02/11 08:14:40;;;;;;;22.33;10.68;;;;;;;6.58;47.93;103040.28;4948687;28;20048;-76
2023/02/11 08:17:08;;;;;;;18.60;11.30;;;;;;;6.59;48.11;103035.75;4946305;28;20102;-77
2023/02/11 08:19:36;;;;;;;21.38;11.38;;;;;;;6.59;48.23;103033.03;4948298;28;20461;-77
2023/02/11 08:22:03;;;;;;;22.38;11.48;;;;;;;6.59;48.00;103038.47;4954676;28;20043;-77
2023/02/11 08:24:31;;;;;;;21.20;11.32;;;;;;;6.60;48.19;103032.06;4948731;28;20052;-76
2023/02/11 08:27:00;;;;;;;21.63;10.75;;;;;;;6.61;48.31;103036.59;4947685;28;20051;-77
2023/02/11 08:29:28;;;;;;;22.33;12.52;;;;;;;6.60;48.54;103043.84;4952167;28;20043;-77
2023/02/11 08:31:56;;;;;;;18.65;10.52;;;;;;;6.61;48.24;103039.31;4946485;28;20043;-77
2023/02/11 08:34:24;;;;;;;24.17;11.63;;;;;;;6.61;48.25;103047.47;4946073;28;20045;-77
2023/02/11 08:36:52;;;;;;;22.38;11.48;;;;;;;6.63;48.37;103040.09;4948424;28;20039;-77
2023/02/11 08:39:22;;;;;;;21.15;11.20;;;;;;;6.64;48.40;103041.88;4947825;28;20108;-77
2023/02/11 08:41:52;;;;;;;20.20;11.35;;;;;;;6.64;48.51;103042.78;4941962;28;20051;-77
2023/02/11 08:44:22;;;;;;;22.88;11.98;;;;;;;6.65;48.67;103044.56;4947851;28;20490;-77
2023/02/11 08:46:51;;;;;;;21.05;10.68;;;;;;;6.65;48.51;103052.72;4954469;28;20059;-77
2023/02/11 08:49:19;;;;;;;25.58;11.80;;;;;;;6.65;48.52;103055.44;4940958;28;20046;-77
2023/02/11 08:51:47;;;;;;;20.98;12.32;;;;;;;6.67;48.48;103058.13;4936153;28;20448;-77
2023/02/11 08:54:16;;;;;;;22.50;12.23;;;;;;;6.65;48.57;103050.00;4954833;28;20060;-77
2023/02/11 08:56:44;;;;;;;22.02;12.30;;;;;;;6.67;48.68;103053.56;4960856;28;20050;-77
2023/02/11 08:59:16;;;;;;;24.10;12.30;;;;;;;6.68;48.96;103060.78;4948472;28;20713;-77
2023/02/11 09:01:46;;;;;;;22.75;11.65;;;;;;;6.66;49.03;103068.09;4946050;28;20089;-77
2023/02/11 09:04:14;;;;;;;25.05;11.68;;;;;;;6.68;48.70;103074.38;4955638;28;20058;-77
2023/02/11 09:06:42;;;;;;;24.38;11.93;;;;;;;6.68;48.85;103077.13;4949950;28;20141;-77
2023/02/11 09:09:12;;;;;;;22.02;11.43;;;;;;;6.70;48.68;103077.91;4946317;28;20047;-77
2023/02/11 09:11:42;;;;;;;21.52;11.95;;;;;;;6.70;48.76;103077.91;4949949;28;20116;-77
2023/02/11 09:14:18;;;;;;;21.63;11.98;;;;;;;6.72;49.42;103078.75;4937965;28;20497;-78
2023/02/11 09:16:47;;;;;;;24.77;12.60;;;;;;;6.72;48.88;103077.88;4940434;28;20039;-77
2023/02/11 09:19:16;;;;;;;22.48;12.40;;;;;;;6.71;48.92;103079.69;4955579;28;20561;-78
2023/02/11 09:21:44;;;;;;;20.35;11.98;;;;;;;6.71;49.19;103085.16;4955822;28;20579;-78
2023/02/11 09:24:12;;;;;;;23.17;12.35;;;;;;;6.72;49.00;103089.66;4957508;28;20043;-78
2023/02/11 09:26:42;;;;;;;25.40;12.93;;;;;;;6.74;49.05;103086.88;4962305;28;20050;-77
2023/02/11 09:29:10;;;;;;;20.02;11.63;;;;;;;6.74;48.96;103090.53;4970003;28;20179;-77
2023/02/11 09:31:38;;;;;;;22.35;12.00;;;;;;;6.76;49.17;103093.19;4961402;28;20056;-78
2023/02/11 09:34:08;;;;;;;25.38;12.57;;;;;;;6.78;49.56;103088.56;4954308;28;20197;-77
2023/02/11 09:36:38;;;;;;;24.33;11.90;;;;;;;6.77;49.04;103094.97;4947975;28;20328;-79
2023/02/11 09:39:07;;;;;;;29.52;13.48;;;;;;;6.79;49.12;103099.41;4952829;28;20041;-76
2023/02/11 09:41:59;;;;;;;23.30;12.43;;;;;;;6.81;50.16;103097.50;4946639;28;20047;-76
2023/02/11 09:44:29;;;;;;;21.15;12.60;;;;;;;6.79;49.26;103088.50;4947596;28;20081;-77
2023/02/11 09:47:00;;;;;;;24.88;12.27;;;;;;;6.82;49.52;103092.97;4952194;28;20039;-77
2023/02/11 09:49:39;;;;;;;24.10;12.20;;;;;;;6.85;50.00;103103.75;4945989;28;20452;-77
2023/02/11 09:52:16;;;;;;;26.77;12.27;;;;;;;6.84;49.88;103096.53;4953786;28;20042;-77
2023/02/11 09:54:53;;;;;;;26.70;14.00;;;;;;;6.87;50.29;103106.38;4949630;28;20051;-76
2023/02/11 09:57:22;;;;;;;25.63;13.50;;;;;;;6.87;49.36;103103.66;4945020;28;20031;-77
2023/02/11 09:59:56;;;;;;;22.42;12.52;;;;;;;6.89;49.35;103120.84;4942311;28;20059;-77
2023/02/11 10:02:32;;;;;;;23.25;13.23;;;;;;;6.91;49.65;103122.56;4938590;28;20043;-76
2023/02/11 10:05:22;;;;;;;22.40;12.73;;;;;;;6.91;50.57;103122.56;4946056;28;20328;-77
2023/02/11 10:07:59;;;;;;;25.52;12.77;;;;;;;6.93;49.82;103125.25;4959016;28;20058;-76
2023/02/11 10:10:44;;;;;;;25.85;13.05;;;;;;;6.94;50.26;103125.16;4948932;28;20402;-77
2023/02/11 10:13:32;;;;;;;24.30;12.27;;;;;;;6.97;50.35;103133.22;4943608;28;20047;-77
2023/02/11 10:16:09;;;;;;;21.92;11.73;;;;;;;6.97;50.21;103130.50;5019983;28;20161;-77
2023/02/11 10:18:51;;;;;;;26.45;12.73;;;;;;;6.99;50.58;103131.34;4992213;28;20125;-77
2023/02/11 10:21:30;;;;;;;23.20;12.98;;;;;;;7.00;50.39;103127.69;4920105;28;20044;-77
2023/02/11 10:24:02;;;;;;;23.88;12.13;;;;;;;7.01;49.57;103134.03;4948694;28;20126;-76
2023/02/11 10:26:32;;;;;;;25.20;13.53;;;;;;;7.01;49.41;103134.03;4937215;29;20047;-77
2023/02/11 10:29:07;;;;;;;23.67;12.38;;;;;;;7.04;49.70;103131.16;4947849;28;20040;-77
2023/02/11 10:31:39;;;;;;;29.05;13.23;;;;;;;7.05;49.87;103128.41;4934542;28;20142;-77
2023/02/11 10:34:11;;;;;;;24.13;12.75;;;;;;;7.05;49.78;103127.50;4941294;28;20280;-76
2023/02/11 10:36:43;;;;;;;25.58;13.75;;;;;;;7.06;49.82;103132.91;4943072;29;20039;-77
2023/02/11 10:39:13;;;;;;;26.75;13.18;;;;;;;7.08;49.71;103138.28;4933825;28;20060;-76
2023/02/11 10:41:44;;;;;;;23.48;13.02;;;;;;;7.09;49.79;103140.06;4935812;28;20039;-77
2023/02/11 10:44:24;;;;;;;28.17;13.45;;;;;;;7.12;50.32;103139.94;4933418;28;20075;-77
2023/02/11 10:46:53;;;;;;;25.05;13.80;;;;;;;7.10;49.35;103140.03;4932472;29;20040;-76
2023/02/11 10:49:37;;;;;;;26.92;13.88;;;;;;;7.12;50.33;103138.09;4944848;28;20563;-76
2023/02/11 10:52:20;;;;;;;27.00;14.68;;;;;;;7.12;50.50;103137.22;4927858;29;20073;-77
2023/02/11 10:55:00;;;;;;;24.75;13.05;;;;;;;7.13;50.49;103141.72;4932247;28;20043;-77
2023/02/11 10:57:32;;;;;;;25.60;13.65;;;;;;;7.13;49.60;103133.56;4931552;28;20150;-77
2023/02/11 11:00:05;;;;;;;26.25;13.52;;;;;;;7.12;49.71;103135.38;4940014;29;20118;-75
2023/02/11 11:02:37;;;;;;;25.48;13.45;;;;;;;7.12;49.59;103135.38;4932187;28;20043;-77
2023/02/11 11:05:16;;;;;;;24.90;13.13;;;;;;;7.13;49.96;103137.16;4927436;28;20059;-76
2023/02/11 11:07:54;;;;;;;25.67;14.07;;;;;;;7.17;50.49;103141.56;4929273;28;20093;-77
2023/02/11 11:10:47;;;;;;;26.10;13.95;;;;;;;7.14;50.47;103143.50;4936389;28;20058;-77
2023/02/11 11:13:27;;;;;;;26.92;13.27;;;;;;;7.15;50.79;103142.56;4923490;28;20047;-75
2023/02/11 11:16:17;;;;;;;27.30;13.35;;;;;;;7.15;50.55;103145.28;4956455;28;20055;-77
2023/02/11 11:18:46;;;;;;;26.90;13.55;;;;;;;7.13;49.62;103145.34;4966377;28;20134;-77
2023/02/11 11:21:18;;;;;;;27.48;13.93;;;;;;;7.16;49.51;103145.25;4953208;28;20051;-77
2023/02/11 11:23:58;;;;;;;28.73;13.90;;;;;;;7.18;50.73;103146.06;4954380;28;20074;-77
2023/02/11 11:26:28;;;;;;;23.83;12.63;;;;;;;7.16;49.68;103145.25;4927208;28;20461;-77
2023/02/11 11:29:01;;;;;;;28.10;13.55;;;;;;;7.18;50.05;103140.63;4929605;28;20134;-77
2023/02/11 11:31:33;;;;;;;24.05;12.82;;;;;;;7.17;49.94;103144.28;4925937;29;20039;-77
2023/02/11 11:34:06;;;;;;;25.70;13.85;;;;;;;7.18;49.52;103143.34;4925999;28;20129;-77
2023/02/11 11:36:37;;;;;;;27.08;13.90;;;;;;;7.19;49.76;103147.81;4942521;28;20097;-77
2023/02/11 11:39:20;;;;;;;27.20;14.05;;;;;;;7.20;50.88;103143.28;4933893;28;20617;-76
2023/02/11 11:41:54;;;;;;;26.30;13.60;;;;;;;7.19;50.50;103149.66;4931915;29;20512;-77
2023/02/11 11:44:31;;;;;;;26.77;13.07;;;;;;;7.20;50.70;103146.88;4943236;28;20206;-77